sensor_id;sensor_type;location;lat;lon;timestamp;pressure;altitude;pressure_sealevel;temperature;humidity
75312;BME280;63906;55.686;37.532;2022-12-15T00:00:54;99712.84;;;-3.57;78.72
75312;BME280;63906;55.686;37.532;2022-12-15T00:06:13;99723.53;;;-3.63;77.58
75312;BME280;63906;55.686;37.532;2022-12-15T00:11:32;99746.06;;;-3.40;80.45
75312;BME280;63906;55.686;37.532;2022-12-15T00:16:51;99726.97;;;-3.50;80.50
75312;BME280;63906;55.686;37.532;2022-12-15T00:22:11;99746.63;;;-3.49;80.46
75312;BME280;63906;55.686;37.532;2022-12-15T00:27:30;99767.06;;;-3.33;79.14
75312;BME280;63906;55.686;37.532;2022-12-15T00:32:49;99757.69;;;-3.61;77.67
75312;BME280;63906;55.686;37.532;2022-12-15T00:38:12;99750.56;;;-3.43;78.48
75312;BME280;63906;55.686;37.532;2022-12-15T00:43:33;99742.34;;;-3.36;77.96
75312;BME280;63906;55.686;37.532;2022-12-15T00:48:34;99777.44;;;-3.08;80.56
75312;BME280;63906;55.686;37.532;2022-12-15T00:53:35;99782.34;;;-3.17;78.85
75312;BME280;63906;55.686;37.532;2022-12-15T00:58:54;99774.91;;;-3.35;77.96
75312;BME280;63906;55.686;37.532;2022-12-15T01:04:14;99772.34;;;-3.49;74.95
75312;BME280;63906;55.686;37.532;2022-12-15T01:09:33;99771.16;;;-3.43;76.41
75312;BME280;63906;55.686;37.532;2022-12-15T01:14:52;99776.53;;;-3.34;77.06
75312;BME280;63906;55.686;37.532;2022-12-15T01:20:11;99776.78;;;-3.51;77.73
75312;BME280;63906;55.686;37.532;2022-12-15T01:25:19;99782.47;;;-3.46;78.74
75312;BME280;63906;55.686;37.532;2022-12-15T01:30:22;99776.50;;;-3.46;78.69
75312;BME280;63906;55.686;37.532;2022-12-15T01:35:23;99806.50;;;-3.33;79.88
75312;BME280;63906;55.686;37.532;2022-12-15T01:40:26;99783.63;;;-3.64;79.68
75312;BME280;63906;55.686;37.532;2022-12-15T01:45:58;99806.22;;;-3.69;79.82
75312;BME280;63906;55.686;37.532;2022-12-15T01:56:20;99794.59;;;-4.18;79.44
75312;BME280;63906;55.686;37.532;2022-12-15T02:01:22;99814.16;;;-4.15;79.76
75312;BME280;63906;55.686;37.532;2022-12-15T02:06:24;99834.81;;;-4.31;79.81
75312;BME280;63906;55.686;37.532;2022-12-15T02:11:43;99805.16;;;-4.51;80.39
75312;BME280;63906;55.686;37.532;2022-12-15T02:22:18;99818.69;;;-4.77;80.24
75312;BME280;63906;55.686;37.532;2022-12-15T02:38:07;99830.03;;;-4.81;81.67
75312;BME280;63906;55.686;37.532;2022-12-15T02:43:08;99859.09;;;-4.51;80.56
75312;BME280;63906;55.686;37.532;2022-12-15T02:48:27;99847.19;;;-4.23;81.37
75312;BME280;63906;55.686;37.532;2022-12-15T02:53:48;99856.94;;;-4.28;78.26
75312;BME280;63906;55.686;37.532;2022-12-15T02:59:16;99857.94;;;-3.88;81.35
75312;BME280;63906;55.686;37.532;2022-12-15T03:04:19;99841.88;;;-4.06;79.12
75312;BME280;63906;55.686;37.532;2022-12-15T03:09:20;99819.94;;;-4.12;76.46
75312;BME280;63906;55.686;37.532;2022-12-15T03:14:20;99828.28;;;-3.94;78.08
75312;BME280;63906;55.686;37.532;2022-12-15T03:19:21;99845.38;;;-3.78;77.21
75312;BME280;63906;55.686;37.532;2022-12-15T03:24:22;99844.16;;;-3.59;78.68
75312;BME280;63906;55.686;37.532;2022-12-15T03:29:22;99847.72;;;-3.47;78.34
75312;BME280;63906;55.686;37.532;2022-12-15T03:34:23;99845.16;;;-3.61;75.96
75312;BME280;63906;55.686;37.532;2022-12-15T03:39:23;99879.22;;;-3.29;79.32
75312;BME280;63906;55.686;37.532;2022-12-15T03:44:24;99872.47;;;-3.32;75.61
75312;BME280;63906;55.686;37.532;2022-12-15T03:49:24;99873.56;;;-3.21;78.58
75312;BME280;63906;55.686;37.532;2022-12-15T03:54:25;99880.16;;;-3.17;77.06
75312;BME280;63906;55.686;37.532;2022-12-15T03:59:25;99872.22;;;-3.27;77.25
75312;BME280;63906;55.686;37.532;2022-12-15T04:04:26;99863.44;;;-3.25;79.07
75312;BME280;63906;55.686;37.532;2022-12-15T04:09:26;99856.59;;;-3.11;80.34
75312;BME280;63906;55.686;37.532;2022-12-15T04:14:28;99867.44;;;-3.06;77.11
75312;BME280;63906;55.686;37.532;2022-12-15T04:19:28;99898.66;;;-2.84;79.09
75312;BME280;63906;55.686;37.532;2022-12-15T04:24:48;99900.47;;;-2.86;79.46
75312;BME280;63906;55.686;37.532;2022-12-15T04:30:07;99901.13;;;-2.82;78.09
75312;BME280;63906;55.686;37.532;2022-12-15T04:35:27;99875.66;;;-3.14;74.17
75312;BME280;63906;55.686;37.532;2022-12-15T04:40:46;99904.75;;;-2.99;77.72
75312;BME280;63906;55.686;37.532;2022-12-15T04:46:05;99886.72;;;-2.99;78.51
75312;BME280;63906;55.686;37.532;2022-12-15T04:51:25;99892.97;;;-3.16;74.59
75312;BME280;63906;55.686;37.532;2022-12-15T04:56:44;99931.25;;;-2.97;75.09
75312;BME280;63906;55.686;37.532;2022-12-15T05:02:03;99918.75;;;-3.03;77.02
75312;BME280;63906;55.686;37.532;2022-12-15T05:07:23;99913.34;;;-3.13;79.05
75312;BME280;63906;55.686;37.532;2022-12-15T05:12:43;99911.47;;;-3.38;76.24
75312;BME280;63906;55.686;37.532;2022-12-15T05:18:02;99923.22;;;-3.48;76.61
75312;BME280;63906;55.686;37.532;2022-12-15T05:23:21;99916.78;;;-3.27;78.55
75312;BME280;63906;55.686;37.532;2022-12-15T05:28:40;99912.13;;;-3.48;76.62
75312;BME280;63906;55.686;37.532;2022-12-15T05:33:59;99945.75;;;-3.52;76.97
75312;BME280;63906;55.686;37.532;2022-12-15T05:39:00;99923.31;;;-3.92;75.00
75312;BME280;63906;55.686;37.532;2022-12-15T05:44:00;99938.31;;;-3.85;79.42
75312;BME280;63906;55.686;37.532;2022-12-15T05:49:03;99938.97;;;-4.25;76.41
75312;BME280;63906;55.686;37.532;2022-12-15T05:54:04;99940.28;;;-4.18;79.31
75312;BME280;63906;55.686;37.532;2022-12-15T05:59:05;99978.16;;;-3.92;80.41
75312;BME280;63906;55.686;37.532;2022-12-15T06:04:06;99914.34;;;-4.29;80.76
75312;BME280;63906;55.686;37.532;2022-12-15T06:09:07;99968.03;;;-4.09;81.12
75312;BME280;63906;55.686;37.532;2022-12-15T06:14:08;99948.59;;;-4.59;78.20
75312;BME280;63906;55.686;37.532;2022-12-15T06:19:08;99994.50;;;-4.53;77.84
75312;BME280;63906;55.686;37.532;2022-12-15T06:24:09;100007.97;;;-4.34;79.66
75312;BME280;63906;55.686;37.532;2022-12-15T06:29:11;100011.47;;;-4.35;80.41
75312;BME280;63906;55.686;37.532;2022-12-15T06:34:14;100012.81;;;-4.59;78.58
75312;BME280;63906;55.686;37.532;2022-12-15T06:39:15;100002.44;;;-4.73;78.68
75312;BME280;63906;55.686;37.532;2022-12-15T06:44:16;100000.59;;;-4.40;80.46
75312;BME280;63906;55.686;37.532;2022-12-15T06:49:16;100040.78;;;-4.39;79.56
75312;BME280;63906;55.686;37.532;2022-12-15T06:54:17;99996.91;;;-4.81;76.30
75312;BME280;63906;55.686;37.532;2022-12-15T06:59:18;100011.38;;;-4.49;80.28
75312;BME280;63906;55.686;37.532;2022-12-15T07:04:18;100028.44;;;-4.79;75.57
75312;BME280;63906;55.686;37.532;2022-12-15T07:09:19;100006.50;;;-5.01;75.89
75312;BME280;63906;55.686;37.532;2022-12-15T07:14:19;100020.44;;;-4.57;77.83
75312;BME280;63906;55.686;37.532;2022-12-15T07:19:20;100052.09;;;-4.11;79.67
75312;BME280;63906;55.686;37.532;2022-12-15T07:24:20;100056.44;;;-4.27;78.90
75312;BME280;63906;55.686;37.532;2022-12-15T07:29:21;100051.16;;;-4.40;76.38
75312;BME280;63906;55.686;37.532;2022-12-15T07:34:22;100018.28;;;-4.19;76.37
75312;BME280;63906;55.686;37.532;2022-12-15T07:39:23;100035.97;;;-3.99;74.48
75312;BME280;63906;55.686;37.532;2022-12-15T07:44:26;100025.28;;;-4.21;75.42
75312;BME280;63906;55.686;37.532;2022-12-15T07:49:28;100063.41;;;-4.29;75.98
75312;BME280;63906;55.686;37.532;2022-12-15T07:54:29;100076.25;;;-4.14;76.59
75312;BME280;63906;55.686;37.532;2022-12-15T07:59:29;100067.56;;;-4.43;74.49
75312;BME280;63906;55.686;37.532;2022-12-15T08:04:30;100072.38;;;-4.21;77.99
75312;BME280;63906;55.686;37.532;2022-12-15T08:09:31;100057.28;;;-4.27;77.32
75312;BME280;63906;55.686;37.532;2022-12-15T08:14:32;100046.94;;;-4.11;76.75
75312;BME280;63906;55.686;37.532;2022-12-15T08:19:33;100060.72;;;-4.12;75.23
75312;BME280;63906;55.686;37.532;2022-12-15T08:24:33;100060.69;;;-4.26;72.93
75312;BME280;63906;55.686;37.532;2022-12-15T08:29:34;100053.59;;;-4.07;78.08
75312;BME280;63906;55.686;37.532;2022-12-15T08:34:34;100045.53;;;-4.01;78.97
75312;BME280;63906;55.686;37.532;2022-12-15T08:39:35;100038.50;;;-4.13;78.37
75312;BME280;63906;55.686;37.532;2022-12-15T08:44:35;100059.31;;;-4.02;78.01
75312;BME280;63906;55.686;37.532;2022-12-15T08:49:36;100063.31;;;-3.82;79.83
75312;BME280;63906;55.686;37.532;2022-12-15T08:54:36;100076.63;;;-3.90;77.79
75312;BME280;63906;55.686;37.532;2022-12-15T08:59:37;100047.28;;;-4.17;76.43
75312;BME280;63906;55.686;37.532;2022-12-15T09:04:37;100035.97;;;-3.99;77.99
75312;BME280;63906;55.686;37.532;2022-12-15T09:09:38;100046.13;;;-3.82;79.11
75312;BME280;63906;55.686;37.532;2022-12-15T09:14:38;100062.22;;;-4.08;74.21
75312;BME280;63906;55.686;37.532;2022-12-15T09:19:39;100018.28;;;-4.03;75.57
75312;BME280;63906;55.686;37.532;2022-12-15T09:24:39;100043.41;;;-3.78;73.73
75312;BME280;63906;55.686;37.532;2022-12-15T09:29:40;100040.38;;;-3.71;76.37
75312;BME280;63906;55.686;37.532;2022-12-15T09:34:40;100026.34;;;-3.65;76.01
75312;BME280;63906;55.686;37.532;2022-12-15T09:39:41;100024.28;;;-3.74;73.70
75312;BME280;63906;55.686;37.532;2022-12-15T09:44:42;100000.88;;;-3.70;76.12
75312;BME280;63906;55.686;37.532;2022-12-15T09:49:57;99980.00;;;-3.94;76.39
75312;BME280;63906;55.686;37.532;2022-12-15T09:54:58;99991.41;;;-4.14;72.14
75312;BME280;63906;55.686;37.532;2022-12-15T10:00:06;99977.88;;;-4.01;72.45
75312;BME280;63906;55.686;37.532;2022-12-15T10:10:36;99958.75;;;-4.12;73.25
75312;BME280;63906;55.686;37.532;2022-12-15T10:16:12;99916.50;;;-4.22;72.91
75312;BME280;63906;55.686;37.532;2022-12-15T10:21:11;99916.44;;;-4.66;72.29
75312;BME280;63906;55.686;37.532;2022-12-15T10:26:18;99935.50;;;-4.24;73.02
75312;BME280;63906;55.686;37.532;2022-12-15T10:31:28;99951.47;;;-4.19;72.78
75312;BME280;63906;55.686;37.532;2022-12-15T10:36:31;99923.03;;;-4.76;72.52
75312;BME280;63906;55.686;37.532;2022-12-15T10:41:32;99926.66;;;-4.65;72.54
75312;BME280;63906;55.686;37.532;2022-12-15T10:46:32;99937.84;;;-4.66;72.75
75312;BME280;63906;55.686;37.532;2022-12-15T10:51:46;99958.69;;;-4.40;73.21
75312;BME280;63906;55.686;37.532;2022-12-15T10:56:53;99961.09;;;-4.53;72.53
75312;BME280;63906;55.686;37.532;2022-12-15T11:01:54;99984.03;;;-4.50;72.69
75312;BME280;63906;55.686;37.532;2022-12-15T11:06:59;99975.06;;;-4.43;75.95
75312;BME280;63906;55.686;37.532;2022-12-15T11:12:00;99953.75;;;-4.75;73.89
75312;BME280;63906;55.686;37.532;2022-12-15T11:17:22;99973.97;;;-4.69;74.72
75312;BME280;63906;55.686;37.532;2022-12-15T11:27:43;99964.03;;;-5.06;73.77
75312;BME280;63906;55.686;37.532;2022-12-15T11:32:54;99950.44;;;-4.93;74.45
75312;BME280;63906;55.686;37.532;2022-12-15T11:38:10;99940.56;;;-4.84;74.89
75312;BME280;63906;55.686;37.532;2022-12-15T11:48:26;99939.09;;;-5.04;74.13
75312;BME280;63906;55.686;37.532;2022-12-15T12:04:39;99913.28;;;-5.17;73.50
75312;BME280;63906;55.686;37.532;2022-12-15T12:20:26;99927.69;;;-4.99;74.38
75312;BME280;63906;55.686;37.532;2022-12-15T12:25:28;99893.41;;;-4.98;76.24
75312;BME280;63906;55.686;37.532;2022-12-15T12:30:47;99915.09;;;-5.19;73.96
75312;BME280;63906;55.686;37.532;2022-12-15T12:35:55;99896.63;;;-4.94;74.81
75312;BME280;63906;55.686;37.532;2022-12-15T12:41:13;99905.25;;;-5.11;74.85
75312;BME280;63906;55.686;37.532;2022-12-15T12:46:30;99891.19;;;-5.20;73.96
75312;BME280;63906;55.686;37.532;2022-12-15T12:51:36;99847.50;;;-5.50;76.31
75312;BME280;63906;55.686;37.532;2022-12-15T12:56:43;99882.09;;;-5.25;75.14
75312;BME280;63906;55.686;37.532;2022-12-15T13:01:44;99874.22;;;-5.22;74.92
75312;BME280;63906;55.686;37.532;2022-12-15T13:16:47;99845.50;;;-5.29;74.43
75312;BME280;63906;55.686;37.532;2022-12-15T13:21:52;99806.97;;;-5.27;75.65
75312;BME280;63906;55.686;37.532;2022-12-15T13:27:13;99823.81;;;-5.23;74.11
75312;BME280;63906;55.686;37.532;2022-12-15T13:32:50;99809.91;;;-5.35;73.96
75312;BME280;63906;55.686;37.532;2022-12-15T13:38:01;99795.94;;;-5.29;74.32
75312;BME280;63906;55.686;37.532;2022-12-15T13:48:34;99789.25;;;-5.32;73.16
75312;BME280;63906;55.686;37.532;2022-12-15T13:53:42;99786.13;;;-5.07;75.92
75312;BME280;63906;55.686;37.532;2022-12-15T13:58:46;99767.22;;;-5.20;72.78
75312;BME280;63906;55.686;37.532;2022-12-15T14:09:05;99747.75;;;-5.54;72.83
75312;BME280;63906;55.686;37.532;2022-12-15T14:14:20;99765.72;;;-5.24;72.85
75312;BME280;63906;55.686;37.532;2022-12-15T14:19:22;99732.09;;;-5.50;72.75
75312;BME280;63906;55.686;37.532;2022-12-15T14:24:33;99730.38;;;-5.19;73.85
75312;BME280;63906;55.686;37.532;2022-12-15T14:29:33;99746.13;;;-4.95;73.48
75312;BME280;63906;55.686;37.532;2022-12-15T14:34:43;99732.63;;;-5.29;70.98
75312;BME280;63906;55.686;37.532;2022-12-15T14:39:46;99723.25;;;-5.44;71.47
75312;BME280;63906;55.686;37.532;2022-12-15T14:44:47;99757.09;;;-5.23;71.87
75312;BME280;63906;55.686;37.532;2022-12-15T14:49:49;99760.03;;;-5.29;70.79
75312;BME280;63906;55.686;37.532;2022-12-15T14:54:53;99759.88;;;-5.26;71.53
75312;BME280;63906;55.686;37.532;2022-12-15T14:59:54;99761.16;;;-5.65;71.27
75312;BME280;63906;55.686;37.532;2022-12-15T15:05:00;99753.38;;;-5.63;71.23
75312;BME280;63906;55.686;37.532;2022-12-15T15:10:22;99747.66;;;-5.84;71.05
75312;BME280;63906;55.686;37.532;2022-12-15T15:15:25;99768.84;;;-5.81;72.88
75312;BME280;63906;55.686;37.532;2022-12-15T15:20:30;99768.84;;;-5.65;74.49
75312;BME280;63906;55.686;37.532;2022-12-15T15:30:41;99769.66;;;-5.49;75.65
75312;BME280;63906;55.686;37.532;2022-12-15T15:35:43;99732.06;;;-5.64;75.66
75312;BME280;63906;55.686;37.532;2022-12-15T15:40:50;99716.03;;;-5.83;74.84
75312;BME280;63906;55.686;37.532;2022-12-15T15:45:59;99720.94;;;-5.94;77.34
75312;BME280;63906;55.686;37.532;2022-12-15T15:51:01;99704.16;;;-6.32;77.69
75312;BME280;63906;55.686;37.532;2022-12-15T15:56:04;99708.84;;;-5.92;77.57
75312;BME280;63906;55.686;37.532;2022-12-15T16:01:06;99699.78;;;-6.14;78.22
75312;BME280;63906;55.686;37.532;2022-12-15T16:06:13;99678.88;;;-6.38;78.56
75312;BME280;63906;55.686;37.532;2022-12-15T16:11:15;99676.78;;;-6.47;80.86
75312;BME280;63906;55.686;37.532;2022-12-15T16:16:24;99646.72;;;-6.12;80.17
75312;BME280;63906;55.686;37.532;2022-12-15T16:21:26;99650.13;;;-6.27;80.85
75312;BME280;63906;55.686;37.532;2022-12-15T16:26:29;99654.00;;;-6.20;81.41
75312;BME280;63906;55.686;37.532;2022-12-15T16:31:34;99656.38;;;-6.17;81.94
75312;BME280;63906;55.686;37.532;2022-12-15T16:36:39;99620.75;;;-6.21;81.69
75312;BME280;63906;55.686;37.532;2022-12-15T16:41:40;99612.91;;;-6.03;81.58
75312;BME280;63906;55.686;37.532;2022-12-15T16:46:40;99564.50;;;-6.23;81.98
75312;BME280;63906;55.686;37.532;2022-12-15T16:51:43;99569.38;;;-5.88;81.31
75312;BME280;63906;55.686;37.532;2022-12-15T16:56:44;99604.25;;;-5.86;81.40
75312;BME280;63906;55.686;37.532;2022-12-15T17:01:45;99554.31;;;-6.09;80.63
75312;BME280;63906;55.686;37.532;2022-12-15T17:06:45;99566.81;;;-6.18;81.18
75312;BME280;63906;55.686;37.532;2022-12-15T17:11:46;99572.59;;;-6.15;81.74
75312;BME280;63906;55.686;37.532;2022-12-15T17:16:47;99548.31;;;-6.08;81.40
75312;BME280;63906;55.686;37.532;2022-12-15T17:21:49;99575.78;;;-5.95;80.51
75312;BME280;63906;55.686;37.532;2022-12-15T17:26:51;99570.28;;;-5.45;81.07
75312;BME280;63906;55.686;37.532;2022-12-15T17:31:52;99516.13;;;-5.69;80.26
75312;BME280;63906;55.686;37.532;2022-12-15T17:36:53;99485.94;;;-5.64;81.28
75312;BME280;63906;55.686;37.532;2022-12-15T17:41:55;99483.97;;;-6.03;81.86
75312;BME280;63906;55.686;37.532;2022-12-15T17:46:55;99489.13;;;-5.46;81.74
75312;BME280;63906;55.686;37.532;2022-12-15T17:51:56;99462.47;;;-5.44;81.45
75312;BME280;63906;55.686;37.532;2022-12-15T17:56:59;99449.28;;;-5.66;81.49
75312;BME280;63906;55.686;37.532;2022-12-15T18:02:00;99432.63;;;-5.87;82.48
75312;BME280;63906;55.686;37.532;2022-12-15T18:07:00;99405.84;;;-5.96;81.71
75312;BME280;63906;55.686;37.532;2022-12-15T18:12:01;99405.88;;;-5.55;82.53
75312;BME280;63906;55.686;37.532;2022-12-15T18:17:01;99380.44;;;-5.72;82.77
75312;BME280;63906;55.686;37.532;2022-12-15T18:22:02;99411.53;;;-5.21;82.89
75312;BME280;63906;55.686;37.532;2022-12-15T18:27:17;99413.47;;;-5.53;83.20
75312;BME280;63906;55.686;37.532;2022-12-15T18:32:20;99350.41;;;-5.56;82.93
75312;BME280;63906;55.686;37.532;2022-12-15T18:37:22;99347.59;;;-5.11;82.51
75312;BME280;63906;55.686;37.532;2022-12-15T18:42:24;99379.91;;;-5.22;83.24
75312;BME280;63906;55.686;37.532;2022-12-15T18:47:24;99375.66;;;-5.08;83.53
75312;BME280;63906;55.686;37.532;2022-12-15T18:52:26;99383.91;;;-5.18;83.66
75312;BME280;63906;55.686;37.532;2022-12-15T18:57:33;99305.28;;;-5.58;83.94
75312;BME280;63906;55.686;37.532;2022-12-15T19:02:37;99388.00;;;-5.01;83.63
75312;BME280;63906;55.686;37.532;2022-12-15T19:07:37;99342.41;;;-4.97;83.97
75312;BME280;63906;55.686;37.532;2022-12-15T19:12:38;99349.41;;;-4.99;84.83
75312;BME280;63906;55.686;37.532;2022-12-15T19:17:38;99345.72;;;-4.95;83.80
75312;BME280;63906;55.686;37.532;2022-12-15T19:22:57;99346.59;;;-4.69;83.55
75312;BME280;63906;55.686;37.532;2022-12-15T19:27:59;99350.94;;;-4.57;83.72
75312;BME280;63906;55.686;37.532;2022-12-15T19:33:00;99337.78;;;-4.65;83.93
75312;BME280;63906;55.686;37.532;2022-12-15T19:38:02;99333.16;;;-4.47;82.72
75312;BME280;63906;55.686;37.532;2022-12-15T19:43:03;99322.78;;;-4.58;82.73
75312;BME280;63906;55.686;37.532;2022-12-15T19:48:03;99316.19;;;-4.75;83.22
75312;BME280;63906;55.686;37.532;2022-12-15T19:53:13;99289.19;;;-4.68;81.91
75312;BME280;63906;55.686;37.532;2022-12-15T19:58:31;99322.16;;;-4.49;82.32
75312;BME280;63906;55.686;37.532;2022-12-15T20:03:32;99285.91;;;-4.70;83.87
75312;BME280;63906;55.686;37.532;2022-12-15T20:08:34;99281.59;;;-4.57;84.27
75312;BME280;63906;55.686;37.532;2022-12-15T20:13:36;99294.53;;;-4.46;84.14
75312;BME280;63906;55.686;37.532;2022-12-15T20:18:36;99286.59;;;-4.30;84.67
75312;BME280;63906;55.686;37.532;2022-12-15T20:23:47;99266.28;;;-4.33;84.70
75312;BME280;63906;55.686;37.532;2022-12-15T20:28:49;99249.03;;;-4.44;82.63
75312;BME280;63906;55.686;37.532;2022-12-15T20:33:51;99280.34;;;-4.39;82.99
75312;BME280;63906;55.686;37.532;2022-12-15T20:38:52;99277.47;;;-4.21;83.70
75312;BME280;63906;55.686;37.532;2022-12-15T20:43:54;99253.84;;;-4.39;83.66
75312;BME280;63906;55.686;37.532;2022-12-15T20:48:55;99234.66;;;-4.46;84.15
75312;BME280;63906;55.686;37.532;2022-12-15T20:53:58;99251.25;;;-4.26;83.35
75312;BME280;63906;55.686;37.532;2022-12-15T20:58:58;99241.44;;;-3.96;83.50
75312;BME280;63906;55.686;37.532;2022-12-15T21:04:02;99233.41;;;-4.04;83.00
75312;BME280;63906;55.686;37.532;2022-12-15T21:09:10;99239.09;;;-4.12;84.03
75312;BME280;63906;55.686;37.532;2022-12-15T21:14:18;99233.56;;;-4.18;83.56
75312;BME280;63906;55.686;37.532;2022-12-15T21:19:18;99230.38;;;-4.09;84.08
75312;BME280;63906;55.686;37.532;2022-12-15T21:24:24;99209.31;;;-4.14;83.99
75312;BME280;63906;55.686;37.532;2022-12-15T21:29:26;99199.84;;;-4.14;83.64
75312;BME280;63906;55.686;37.532;2022-12-15T21:34:27;99200.34;;;-4.09;83.36
75312;BME280;63906;55.686;37.532;2022-12-15T21:39:35;99204.72;;;-3.98;83.41
75312;BME280;63906;55.686;37.532;2022-12-15T21:44:36;99196.44;;;-3.77;83.53
75312;BME280;63906;55.686;37.532;2022-12-15T21:49:36;99194.56;;;-3.52;83.44
75312;BME280;63906;55.686;37.532;2022-12-15T21:54:37;99191.00;;;-3.62;83.50
75312;BME280;63906;55.686;37.532;2022-12-15T21:59:37;99182.63;;;-3.76;83.68
75312;BME280;63906;55.686;37.532;2022-12-15T22:04:38;99119.50;;;-4.04;82.85
75312;BME280;63906;55.686;37.532;2022-12-15T22:09:38;99178.75;;;-3.58;82.07
75312;BME280;63906;55.686;37.532;2022-12-15T22:14:39;99160.44;;;-3.77;83.56
75312;BME280;63906;55.686;37.532;2022-12-15T22:19:39;99156.53;;;-3.59;84.13
75312;BME280;63906;55.686;37.532;2022-12-15T22:24:40;99171.78;;;-3.69;83.14
75312;BME280;63906;55.686;37.532;2022-12-15T22:29:40;99159.59;;;-3.43;82.93
75312;BME280;63906;55.686;37.532;2022-12-15T22:34:41;99145.50;;;-3.61;82.67
75312;BME280;63906;55.686;37.532;2022-12-15T22:39:42;99156.53;;;-3.48;82.84
75312;BME280;63906;55.686;37.532;2022-12-15T22:44:43;99150.31;;;-3.21;82.27
75312;BME280;63906;55.686;37.532;2022-12-15T22:49:44;99183.44;;;-3.06;82.12
75312;BME280;63906;55.686;37.532;2022-12-15T22:54:45;99136.34;;;-3.41;81.50
75312;BME280;63906;55.686;37.532;2022-12-15T22:59:50;99174.41;;;-3.11;82.73
75312;BME280;63906;55.686;37.532;2022-12-15T23:04:53;99164.59;;;-3.06;82.78
75312;BME280;63906;55.686;37.532;2022-12-15T23:09:54;99176.66;;;-3.07;83.57
75312;BME280;63906;55.686;37.532;2022-12-15T23:15:13;99172.34;;;-2.95;83.50
75312;BME280;63906;55.686;37.532;2022-12-15T23:20:32;99180.69;;;-2.91;82.64
75312;BME280;63906;55.686;37.532;2022-12-15T23:25:33;99151.25;;;-3.22;82.82
75312;BME280;63906;55.686;37.532;2022-12-15T23:30:33;99168.59;;;-3.02;83.32
75312;BME280;63906;55.686;37.532;2022-12-15T23:35:34;99141.59;;;-2.85;82.59
75312;BME280;63906;55.686;37.532;2022-12-15T23:40:46;99138.41;;;-2.89;82.27
75312;BME280;63906;55.686;37.532;2022-12-15T23:46:06;99133.97;;;-2.76;80.58
75312;BME280;63906;55.686;37.532;2022-12-15T23:51:15;99154.81;;;-2.90;80.81
75312;BME280;63906;55.686;37.532;2022-12-15T23:56:18;99131.72;;;-2.80;82.09
